sensor_id;sensor_type;location;lat;lon;timestamp;temperature;humidity
17599;DHT22;8918;52.092;5.232;2023-09-07T00:00:48;20.10;99.90
17599;DHT22;8918;52.092;5.232;2023-09-07T00:03:14;20.10;99.90
17599;DHT22;8918;52.092;5.232;2023-09-07T00:05:41;20.10;99.90
17599;DHT22;8918;52.092;5.232;2023-09-07T00:08:06;20.00;99.90
17599;DHT22;8918;52.092;5.232;2023-09-07T00:10:33;20.00;99.90
17599;DHT22;8918;52.092;5.232;2023-09-07T00:13:02;20.00;99.90
17599;DHT22;8918;52.092;5.232;2023-09-07T00:15:29;19.90;99.90
17599;DHT22;8918;52.092;5.232;2023-09-07T00:17:56;19.90;99.90
17599;DHT22;8918;52.092;5.232;2023-09-07T00:20:22;19.80;99.90
17599;DHT22;8918;52.092;5.232;2023-09-07T00:22:49;19.80;99.90
17599;DHT22;8918;52.092;5.232;2023-09-07T00:25:14;19.80;99.90
17599;DHT22;8918;52.092;5.232;2023-09-07T00:27:40;19.80;99.90
17599;DHT22;8918;52.092;5.232;2023-09-07T00:30:06;19.70;99.90
17599;DHT22;8918;52.092;5.232;2023-09-07T00:32:37;19.70;99.90
17599;DHT22;8918;52.092;5.232;2023-09-07T00:35:04;19.70;99.90
17599;DHT22;8918;52.092;5.232;2023-09-07T00:37:29;19.70;99.90
17599;DHT22;8918;52.092;5.232;2023-09-07T00:39:55;19.60;99.90
17599;DHT22;8918;52.092;5.232;2023-09-07T00:42:21;19.60;99.90
17599;DHT22;8918;52.092;5.232;2023-09-07T00:44:46;19.50;99.90
17599;DHT22;8918;52.092;5.232;2023-09-07T00:47:14;19.50;99.90
17599;DHT22;8918;52.092;5.232;2023-09-07T00:49:40;19.40;99.90
17599;DHT22;8918;52.092;5.232;2023-09-07T00:52:06;19.40;99.90
17599;DHT22;8918;52.092;5.232;2023-09-07T00:54:33;19.40;99.90
17599;DHT22;8918;52.092;5.232;2023-09-07T00:57:00;19.30;99.90
17599;DHT22;8918;52.092;5.232;2023-09-07T00:59:26;19.30;99.90
17599;DHT22;8918;52.092;5.232;2023-09-07T01:01:52;19.30;99.90
17599;DHT22;8918;52.092;5.232;2023-09-07T01:04:18;19.20;99.90
17599;DHT22;8918;52.092;5.232;2023-09-07T01:06:52;19.20;99.90
17599;DHT22;8918;52.092;5.232;2023-09-07T01:09:23;19.20;99.90
17599;DHT22;8918;52.092;5.232;2023-09-07T01:11:50;19.10;99.90
17599;DHT22;8918;52.092;5.232;2023-09-07T01:14:15;19.10;99.90
17599;DHT22;8918;52.092;5.232;2023-09-07T01:16:41;19.10;99.90
17599;DHT22;8918;52.092;5.232;2023-09-07T01:19:07;19.10;99.90
17599;DHT22;8918;52.092;5.232;2023-09-07T01:21:35;19.00;99.90
17599;DHT22;8918;52.092;5.232;2023-09-07T01:24:06;19.00;99.90
17599;DHT22;8918;52.092;5.232;2023-09-07T01:26:33;19.10;99.90
17599;DHT22;8918;52.092;5.232;2023-09-07T01:28:59;19.10;99.90
17599;DHT22;8918;52.092;5.232;2023-09-07T01:31:25;19.00;99.90
17599;DHT22;8918;52.092;5.232;2023-09-07T01:33:51;19.00;99.90
17599;DHT22;8918;52.092;5.232;2023-09-07T01:36:17;19.00;99.90
17599;DHT22;8918;52.092;5.232;2023-09-07T01:38:42;19.00;99.90
17599;DHT22;8918;52.092;5.232;2023-09-07T01:41:08;19.00;99.90
17599;DHT22;8918;52.092;5.232;2023-09-07T01:43:33;18.90;99.90
17599;DHT22;8918;52.092;5.232;2023-09-07T01:45:59;18.90;99.90
17599;DHT22;8918;52.092;5.232;2023-09-07T01:48:24;18.90;99.90
17599;DHT22;8918;52.092;5.232;2023-09-07T01:50:53;18.90;99.90
17599;DHT22;8918;52.092;5.232;2023-09-07T01:53:20;18.90;99.90
17599;DHT22;8918;52.092;5.232;2023-09-07T01:55:45;18.90;99.90
17599;DHT22;8918;52.092;5.232;2023-09-07T01:58:11;18.80;99.90
17599;DHT22;8918;52.092;5.232;2023-09-07T02:00:38;18.90;99.90
17599;DHT22;8918;52.092;5.232;2023-09-07T02:03:05;18.80;99.90
17599;DHT22;8918;52.092;5.232;2023-09-07T02:05:30;18.90;99.90
17599;DHT22;8918;52.092;5.232;2023-09-07T02:07:57;18.80;99.90
17599;DHT22;8918;52.092;5.232;2023-09-07T02:10:23;18.80;99.90
17599;DHT22;8918;52.092;5.232;2023-09-07T02:12:49;18.70;99.90
17599;DHT22;8918;52.092;5.232;2023-09-07T02:15:15;18.80;99.90
17599;DHT22;8918;52.092;5.232;2023-09-07T02:17:40;18.70;99.90
17599;DHT22;8918;52.092;5.232;2023-09-07T02:20:10;18.70;99.90
17599;DHT22;8918;52.092;5.232;2023-09-07T02:22:37;18.70;99.90
17599;DHT22;8918;52.092;5.232;2023-09-07T02:25:03;18.70;99.90
17599;DHT22;8918;52.092;5.232;2023-09-07T02:27:31;18.70;99.90
17599;DHT22;8918;52.092;5.232;2023-09-07T02:29:57;18.70;99.90
17599;DHT22;8918;52.092;5.232;2023-09-07T02:32:23;18.70;99.90
17599;DHT22;8918;52.092;5.232;2023-09-07T02:34:48;18.60;99.90
17599;DHT22;8918;52.092;5.232;2023-09-07T02:37:14;18.60;99.90
17599;DHT22;8918;52.092;5.232;2023-09-07T02:39:41;18.60;99.90
17599;DHT22;8918;52.092;5.232;2023-09-07T02:42:07;18.60;99.90
17599;DHT22;8918;52.092;5.232;2023-09-07T02:44:33;18.50;99.90
17599;DHT22;8918;52.092;5.232;2023-09-07T02:46:59;18.50;99.90
17599;DHT22;8918;52.092;5.232;2023-09-07T02:49:24;18.50;99.90
17599;DHT22;8918;52.092;5.232;2023-09-07T02:51:50;18.50;99.90
17599;DHT22;8918;52.092;5.232;2023-09-07T02:54:15;18.40;99.90
17599;DHT22;8918;52.092;5.232;2023-09-07T02:56:41;18.40;99.90
17599;DHT22;8918;52.092;5.232;2023-09-07T02:59:07;18.40;99.90
17599;DHT22;8918;52.092;5.232;2023-09-07T03:01:33;18.40;99.90
17599;DHT22;8918;52.092;5.232;2023-09-07T03:03:59;18.30;99.90
17599;DHT22;8918;52.092;5.232;2023-09-07T03:06:25;18.40;99.90
17599;DHT22;8918;52.092;5.232;2023-09-07T03:08:50;18.30;99.90
17599;DHT22;8918;52.092;5.232;2023-09-07T03:11:18;18.30;99.90
17599;DHT22;8918;52.092;5.232;2023-09-07T03:13:43;18.30;99.90
17599;DHT22;8918;52.092;5.232;2023-09-07T03:16:09;18.30;99.90
17599;DHT22;8918;52.092;5.232;2023-09-07T03:18:35;18.20;99.90
17599;DHT22;8918;52.092;5.232;2023-09-07T03:21:02;18.30;99.90
17599;DHT22;8918;52.092;5.232;2023-09-07T03:23:32;18.20;99.90
17599;DHT22;8918;52.092;5.232;2023-09-07T03:25:58;18.20;99.90
17599;DHT22;8918;52.092;5.232;2023-09-07T03:28:24;18.10;99.90
17599;DHT22;8918;52.092;5.232;2023-09-07T03:30:52;18.10;99.90
17599;DHT22;8918;52.092;5.232;2023-09-07T03:33:17;18.00;99.90
17599;DHT22;8918;52.092;5.232;2023-09-07T03:35:43;18.00;99.90
17599;DHT22;8918;52.092;5.232;2023-09-07T03:38:08;18.00;99.90
17599;DHT22;8918;52.092;5.232;2023-09-07T03:40:34;18.00;99.90
17599;DHT22;8918;52.092;5.232;2023-09-07T03:43:00;18.00;99.90
17599;DHT22;8918;52.092;5.232;2023-09-07T03:45:25;18.00;99.90
17599;DHT22;8918;52.092;5.232;2023-09-07T03:47:51;18.00;99.90
17599;DHT22;8918;52.092;5.232;2023-09-07T03:50:16;18.00;99.90
17599;DHT22;8918;52.092;5.232;2023-09-07T03:52:42;18.00;99.90
17599;DHT22;8918;52.092;5.232;2023-09-07T03:55:08;17.90;99.90
17599;DHT22;8918;52.092;5.232;2023-09-07T03:57:33;17.90;99.90
17599;DHT22;8918;52.092;5.232;2023-09-07T03:59:59;17.90;99.90
17599;DHT22;8918;52.092;5.232;2023-09-07T04:02:25;17.90;99.90
17599;DHT22;8918;52.092;5.232;2023-09-07T04:04:52;17.90;99.90
17599;DHT22;8918;52.092;5.232;2023-09-07T04:07:18;17.80;99.90
17599;DHT22;8918;52.092;5.232;2023-09-07T04:09:45;17.80;99.90
17599;DHT22;8918;52.092;5.232;2023-09-07T04:12:11;17.90;99.90
17599;DHT22;8918;52.092;5.232;2023-09-07T04:14:36;17.80;99.90
17599;DHT22;8918;52.092;5.232;2023-09-07T04:17:02;17.80;99.90
17599;DHT22;8918;52.092;5.232;2023-09-07T04:19:28;17.80;99.90
17599;DHT22;8918;52.092;5.232;2023-09-07T04:21:53;17.80;99.90
17599;DHT22;8918;52.092;5.232;2023-09-07T04:24:19;17.80;99.90
17599;DHT22;8918;52.092;5.232;2023-09-07T04:26:47;17.80;99.90
17599;DHT22;8918;52.092;5.232;2023-09-07T04:29:13;17.70;99.90
17599;DHT22;8918;52.092;5.232;2023-09-07T04:31:38;17.70;99.90
17599;DHT22;8918;52.092;5.232;2023-09-07T04:34:04;17.70;99.90
17599;DHT22;8918;52.092;5.232;2023-09-07T04:36:30;17.60;99.90
17599;DHT22;8918;52.092;5.232;2023-09-07T04:38:55;17.60;99.90
17599;DHT22;8918;52.092;5.232;2023-09-07T04:41:21;17.60;99.90
17599;DHT22;8918;52.092;5.232;2023-09-07T04:43:46;17.60;99.90
17599;DHT22;8918;52.092;5.232;2023-09-07T04:46:13;17.50;99.90
17599;DHT22;8918;52.092;5.232;2023-09-07T04:48:40;17.60;99.90
17599;DHT22;8918;52.092;5.232;2023-09-07T04:51:08;17.60;99.90
17599;DHT22;8918;52.092;5.232;2023-09-07T04:53:36;17.60;99.90
17599;DHT22;8918;52.092;5.232;2023-09-07T04:56:03;17.50;99.90
17599;DHT22;8918;52.092;5.232;2023-09-07T04:58:30;17.50;99.90
17599;DHT22;8918;52.092;5.232;2023-09-07T05:01:02;17.40;99.90
17599;DHT22;8918;52.092;5.232;2023-09-07T05:03:28;17.40;99.90
17599;DHT22;8918;52.092;5.232;2023-09-07T05:05:53;17.40;99.90
17599;DHT22;8918;52.092;5.232;2023-09-07T05:08:19;17.40;99.90
17599;DHT22;8918;52.092;5.232;2023-09-07T05:10:45;17.30;99.90
17599;DHT22;8918;52.092;5.232;2023-09-07T05:13:11;17.40;99.90
17599;DHT22;8918;52.092;5.232;2023-09-07T05:15:36;17.40;99.90
17599;DHT22;8918;52.092;5.232;2023-09-07T05:18:02;17.40;99.90
17599;DHT22;8918;52.092;5.232;2023-09-07T05:20:30;17.40;99.90
17599;DHT22;8918;52.092;5.232;2023-09-07T05:22:55;17.40;99.90
17599;DHT22;8918;52.092;5.232;2023-09-07T05:25:22;17.40;99.90
17599;DHT22;8918;52.092;5.232;2023-09-07T05:27:48;17.30;99.90
17599;DHT22;8918;52.092;5.232;2023-09-07T05:30:14;17.30;99.90
17599;DHT22;8918;52.092;5.232;2023-09-07T05:32:40;17.30;99.90
17599;DHT22;8918;52.092;5.232;2023-09-07T05:35:09;17.30;99.90
17599;DHT22;8918;52.092;5.232;2023-09-07T05:37:37;17.40;99.90
17599;DHT22;8918;52.092;5.232;2023-09-07T05:40:03;17.40;99.90
17599;DHT22;8918;52.092;5.232;2023-09-07T05:42:29;17.40;99.90
17599;DHT22;8918;52.092;5.232;2023-09-07T05:44:55;17.40;99.90
17599;DHT22;8918;52.092;5.232;2023-09-07T05:47:20;17.40;99.90
17599;DHT22;8918;52.092;5.232;2023-09-07T05:49:46;17.50;99.90
17599;DHT22;8918;52.092;5.232;2023-09-07T05:52:11;17.50;99.90
17599;DHT22;8918;52.092;5.232;2023-09-07T05:54:37;17.50;99.90
17599;DHT22;8918;52.092;5.232;2023-09-07T05:57:03;17.60;99.90
17599;DHT22;8918;52.092;5.232;2023-09-07T05:59:28;17.60;99.90
17599;DHT22;8918;52.092;5.232;2023-09-07T06:01:54;17.70;99.90
17599;DHT22;8918;52.092;5.232;2023-09-07T06:04:19;17.70;99.90
17599;DHT22;8918;52.092;5.232;2023-09-07T06:06:45;17.80;99.90
17599;DHT22;8918;52.092;5.232;2023-09-07T06:09:10;17.80;99.90
17599;DHT22;8918;52.092;5.232;2023-09-07T06:11:36;17.90;99.90
17599;DHT22;8918;52.092;5.232;2023-09-07T06:14:02;17.90;99.90
17599;DHT22;8918;52.092;5.232;2023-09-07T06:16:28;18.00;99.90
17599;DHT22;8918;52.092;5.232;2023-09-07T06:18:53;18.10;99.90
17599;DHT22;8918;52.092;5.232;2023-09-07T06:21:19;18.10;99.90
17599;DHT22;8918;52.092;5.232;2023-09-07T06:23:45;18.20;99.90
17599;DHT22;8918;52.092;5.232;2023-09-07T06:28:37;18.40;99.90
17599;DHT22;8918;52.092;5.232;2023-09-07T06:31:04;18.40;99.90
17599;DHT22;8918;52.092;5.232;2023-09-07T06:33:29;18.50;99.90
17599;DHT22;8918;52.092;5.232;2023-09-07T06:35:55;18.60;99.90
17599;DHT22;8918;52.092;5.232;2023-09-07T06:38:22;18.70;99.90
17599;DHT22;8918;52.092;5.232;2023-09-07T06:40:51;18.80;99.90
17599;DHT22;8918;52.092;5.232;2023-09-07T06:43:16;18.80;99.90
17599;DHT22;8918;52.092;5.232;2023-09-07T06:45:42;18.90;99.90
17599;DHT22;8918;52.092;5.232;2023-09-07T06:48:07;19.00;99.90
17599;DHT22;8918;52.092;5.232;2023-09-07T06:50:33;19.10;99.90
17599;DHT22;8918;52.092;5.232;2023-09-07T06:52:59;19.10;99.90
17599;DHT22;8918;52.092;5.232;2023-09-07T06:55:24;19.20;99.90
17599;DHT22;8918;52.092;5.232;2023-09-07T06:57:50;19.30;99.90
17599;DHT22;8918;52.092;5.232;2023-09-07T07:00:16;19.40;99.90
17599;DHT22;8918;52.092;5.232;2023-09-07T07:02:41;19.40;99.90
17599;DHT22;8918;52.092;5.232;2023-09-07T07:05:07;19.50;99.90
17599;DHT22;8918;52.092;5.232;2023-09-07T07:07:34;19.60;99.90
17599;DHT22;8918;52.092;5.232;2023-09-07T07:10:00;19.70;99.90
17599;DHT22;8918;52.092;5.232;2023-09-07T07:12:25;19.70;99.90
17599;DHT22;8918;52.092;5.232;2023-09-07T07:14:52;19.80;99.90
17599;DHT22;8918;52.092;5.232;2023-09-07T07:17:17;19.80;99.90
17599;DHT22;8918;52.092;5.232;2023-09-07T07:19:43;19.90;99.90
17599;DHT22;8918;52.092;5.232;2023-09-07T07:22:08;20.00;99.90
17599;DHT22;8918;52.092;5.232;2023-09-07T07:24:34;20.00;99.90
17599;DHT22;8918;52.092;5.232;2023-09-07T07:27:00;20.10;99.90
17599;DHT22;8918;52.092;5.232;2023-09-07T07:29:25;20.20;99.90
17599;DHT22;8918;52.092;5.232;2023-09-07T07:31:51;20.20;99.90
17599;DHT22;8918;52.092;5.232;2023-09-07T07:34:16;20.30;99.90
17599;DHT22;8918;52.092;5.232;2023-09-07T07:36:42;20.40;99.90
17599;DHT22;8918;52.092;5.232;2023-09-07T07:39:07;20.50;99.90
17599;DHT22;8918;52.092;5.232;2023-09-07T07:41:33;20.50;99.90
17599;DHT22;8918;52.092;5.232;2023-09-07T07:43:59;20.60;99.90
17599;DHT22;8918;52.092;5.232;2023-09-07T07:46:24;20.70;99.90
17599;DHT22;8918;52.092;5.232;2023-09-07T07:48:50;20.80;99.90
17599;DHT22;8918;52.092;5.232;2023-09-07T07:51:16;20.80;99.90
17599;DHT22;8918;52.092;5.232;2023-09-07T07:53:41;20.90;99.90
17599;DHT22;8918;52.092;5.232;2023-09-07T07:56:15;21.00;99.90
17599;DHT22;8918;52.092;5.232;2023-09-07T07:58:41;21.10;99.90
17599;DHT22;8918;52.092;5.232;2023-09-07T08:01:16;21.20;99.90
17599;DHT22;8918;52.092;5.232;2023-09-07T08:03:42;21.20;99.90
17599;DHT22;8918;52.092;5.232;2023-09-07T08:06:08;21.30;99.90
17599;DHT22;8918;52.092;5.232;2023-09-07T08:08:34;21.40;99.90
17599;DHT22;8918;52.092;5.232;2023-09-07T08:11:00;21.50;99.90
17599;DHT22;8918;52.092;5.232;2023-09-07T08:13:30;21.60;99.90
17599;DHT22;8918;52.092;5.232;2023-09-07T08:15:55;21.70;99.90
17599;DHT22;8918;52.092;5.232;2023-09-07T08:18:21;21.80;99.90
17599;DHT22;8918;52.092;5.232;2023-09-07T08:20:49;21.90;99.90
17599;DHT22;8918;52.092;5.232;2023-09-07T08:23:14;22.00;99.90
17599;DHT22;8918;52.092;5.232;2023-09-07T08:25:40;22.20;99.90
17599;DHT22;8918;52.092;5.232;2023-09-07T08:28:10;22.30;99.90
17599;DHT22;8918;52.092;5.232;2023-09-07T08:30:36;22.40;99.90
17599;DHT22;8918;52.092;5.232;2023-09-07T08:33:02;22.50;99.90
17599;DHT22;8918;52.092;5.232;2023-09-07T08:35:30;22.60;99.90
17599;DHT22;8918;52.092;5.232;2023-09-07T08:38:00;22.80;99.90
17599;DHT22;8918;52.092;5.232;2023-09-07T08:40:29;22.90;99.90
17599;DHT22;8918;52.092;5.232;2023-09-07T08:42:55;23.00;99.90
17599;DHT22;8918;52.092;5.232;2023-09-07T08:45:22;23.10;99.90
17599;DHT22;8918;52.092;5.232;2023-09-07T08:47:50;23.20;99.90
17599;DHT22;8918;52.092;5.232;2023-09-07T08:50:17;23.30;99.90
17599;DHT22;8918;52.092;5.232;2023-09-07T08:52:44;23.40;99.90
17599;DHT22;8918;52.092;5.232;2023-09-07T08:55:11;23.50;99.90
17599;DHT22;8918;52.092;5.232;2023-09-07T08:57:37;23.70;99.90
17599;DHT22;8918;52.092;5.232;2023-09-07T09:00:03;23.80;99.90
17599;DHT22;8918;52.092;5.232;2023-09-07T09:02:39;23.90;99.90
17599;DHT22;8918;52.092;5.232;2023-09-07T09:05:05;24.00;99.90
17599;DHT22;8918;52.092;5.232;2023-09-07T09:07:33;24.10;99.90
17599;DHT22;8918;52.092;5.232;2023-09-07T09:10:06;24.20;99.90
17599;DHT22;8918;52.092;5.232;2023-09-07T09:12:33;24.30;99.90
17599;DHT22;8918;52.092;5.232;2023-09-07T09:14:59;24.50;99.90
17599;DHT22;8918;52.092;5.232;2023-09-07T09:17:26;24.60;99.90
17599;DHT22;8918;52.092;5.232;2023-09-07T09:19:51;24.70;99.90
17599;DHT22;8918;52.092;5.232;2023-09-07T09:22:17;24.90;99.90
17599;DHT22;8918;52.092;5.232;2023-09-07T09:24:43;25.00;99.90
17599;DHT22;8918;52.092;5.232;2023-09-07T09:27:08;25.10;99.90
17599;DHT22;8918;52.092;5.232;2023-09-07T09:29:34;25.30;99.90
17599;DHT22;8918;52.092;5.232;2023-09-07T09:32:03;25.30;99.90
17599;DHT22;8918;52.092;5.232;2023-09-07T09:34:33;25.40;99.90
17599;DHT22;8918;52.092;5.232;2023-09-07T09:36:59;25.60;99.90
17599;DHT22;8918;52.092;5.232;2023-09-07T09:39:25;25.70;99.90
17599;DHT22;8918;52.092;5.232;2023-09-07T09:41:51;25.80;99.90
17599;DHT22;8918;52.092;5.232;2023-09-07T09:44:21;26.00;99.90
17599;DHT22;8918;52.092;5.232;2023-09-07T09:46:47;26.00;99.90
17599;DHT22;8918;52.092;5.232;2023-09-07T09:49:15;26.20;99.90
17599;DHT22;8918;52.092;5.232;2023-09-07T09:51:42;26.20;99.90
17599;DHT22;8918;52.092;5.232;2023-09-07T09:54:09;26.30;99.90
17599;DHT22;8918;52.092;5.232;2023-09-07T09:56:35;26.40;99.90
17599;DHT22;8918;52.092;5.232;2023-09-07T09:59:01;26.50;99.90
17599;DHT22;8918;52.092;5.232;2023-09-07T10:01:27;26.60;99.90
17599;DHT22;8918;52.092;5.232;2023-09-07T10:03:55;26.80;99.90
17599;DHT22;8918;52.092;5.232;2023-09-07T10:06:27;27.00;99.90
17599;DHT22;8918;52.092;5.232;2023-09-07T10:08:58;27.10;99.90
17599;DHT22;8918;52.092;5.232;2023-09-07T10:11:33;27.20;99.90
17599;DHT22;8918;52.092;5.232;2023-09-07T10:14:02;27.20;99.90
17599;DHT22;8918;52.092;5.232;2023-09-07T10:16:29;27.20;99.90
17599;DHT22;8918;52.092;5.232;2023-09-07T10:19:17;27.30;99.90
17599;DHT22;8918;52.092;5.232;2023-09-07T10:21:43;27.40;99.90
17599;DHT22;8918;52.092;5.232;2023-09-07T10:24:10;27.60;99.90
17599;DHT22;8918;52.092;5.232;2023-09-07T10:26:35;27.70;99.90
17599;DHT22;8918;52.092;5.232;2023-09-07T10:29:02;27.80;99.90
17599;DHT22;8918;52.092;5.232;2023-09-07T10:31:30;27.90;99.90
17599;DHT22;8918;52.092;5.232;2023-09-07T10:34:10;28.10;99.90
17599;DHT22;8918;52.092;5.232;2023-09-07T10:36:37;28.20;99.90
17599;DHT22;8918;52.092;5.232;2023-09-07T10:39:03;28.40;99.90
17599;DHT22;8918;52.092;5.232;2023-09-07T10:41:42;28.60;99.90
17599;DHT22;8918;52.092;5.232;2023-09-07T10:44:09;28.80;99.90
17599;DHT22;8918;52.092;5.232;2023-09-07T10:46:39;29.00;99.90
17599;DHT22;8918;52.092;5.232;2023-09-07T10:49:07;29.10;99.90
17599;DHT22;8918;52.092;5.232;2023-09-07T10:51:44;29.20;99.90
17599;DHT22;8918;52.092;5.232;2023-09-07T10:54:28;29.30;99.90
17599;DHT22;8918;52.092;5.232;2023-09-07T10:56:54;29.50;99.90
17599;DHT22;8918;52.092;5.232;2023-09-07T10:59:23;29.60;99.90
17599;DHT22;8918;52.092;5.232;2023-09-07T11:01:48;29.80;99.90
17599;DHT22;8918;52.092;5.232;2023-09-07T11:04:14;29.80;99.90
17599;DHT22;8918;52.092;5.232;2023-09-07T11:06:42;30.00;99.90
17599;DHT22;8918;52.092;5.232;2023-09-07T11:09:09;30.10;99.90
17599;DHT22;8918;52.092;5.232;2023-09-07T11:11:36;30.20;99.90
17599;DHT22;8918;52.092;5.232;2023-09-07T11:14:03;30.30;99.90
17599;DHT22;8918;52.092;5.232;2023-09-07T11:16:29;30.40;99.90
17599;DHT22;8918;52.092;5.232;2023-09-07T11:18:54;30.60;99.90
17599;DHT22;8918;52.092;5.232;2023-09-07T11:21:20;30.70;99.90
17599;DHT22;8918;52.092;5.232;2023-09-07T11:23:46;30.70;99.90
17599;DHT22;8918;52.092;5.232;2023-09-07T11:26:12;30.80;99.90
17599;DHT22;8918;52.092;5.232;2023-09-07T11:28:38;31.00;99.90
17599;DHT22;8918;52.092;5.232;2023-09-07T11:31:04;31.20;99.90
17599;DHT22;8918;52.092;5.232;2023-09-07T11:33:33;31.50;99.90
17599;DHT22;8918;52.092;5.232;2023-09-07T11:35:59;32.00;99.90
17599;DHT22;8918;52.092;5.232;2023-09-07T11:38:30;32.30;99.90
17599;DHT22;8918;52.092;5.232;2023-09-07T11:41:00;32.70;99.90
17599;DHT22;8918;52.092;5.232;2023-09-07T11:43:26;32.70;99.90
17599;DHT22;8918;52.092;5.232;2023-09-07T11:45:51;32.80;99.90
17599;DHT22;8918;52.092;5.232;2023-09-07T11:48:17;32.90;99.90
17599;DHT22;8918;52.092;5.232;2023-09-07T11:50:43;32.90;99.90
17599;DHT22;8918;52.092;5.232;2023-09-07T11:53:09;32.90;99.90
17599;DHT22;8918;52.092;5.232;2023-09-07T11:55:35;32.80;99.90
17599;DHT22;8918;52.092;5.232;2023-09-07T11:58:04;32.70;99.90
17599;DHT22;8918;52.092;5.232;2023-09-07T12:00:30;32.70;99.90
17599;DHT22;8918;52.092;5.232;2023-09-07T12:02:57;32.50;99.90
17599;DHT22;8918;52.092;5.232;2023-09-07T12:05:22;32.50;99.90
17599;DHT22;8918;52.092;5.232;2023-09-07T12:07:48;32.40;99.90
17599;DHT22;8918;52.092;5.232;2023-09-07T12:10:14;32.30;99.90
17599;DHT22;8918;52.092;5.232;2023-09-07T12:12:40;32.20;99.90
17599;DHT22;8918;52.092;5.232;2023-09-07T12:15:06;32.20;99.90
17599;DHT22;8918;52.092;5.232;2023-09-07T12:17:32;32.40;99.90
17599;DHT22;8918;52.092;5.232;2023-09-07T12:19:58;32.30;99.90
17599;DHT22;8918;52.092;5.232;2023-09-07T12:22:24;32.30;99.90
17599;DHT22;8918;52.092;5.232;2023-09-07T12:24:50;32.20;99.90
17599;DHT22;8918;52.092;5.232;2023-09-07T12:27:16;32.20;99.90
17599;DHT22;8918;52.092;5.232;2023-09-07T12:29:42;32.20;99.90
17599;DHT22;8918;52.092;5.232;2023-09-07T12:32:07;32.10;99.90
17599;DHT22;8918;52.092;5.232;2023-09-07T12:34:33;32.00;99.90
17599;DHT22;8918;52.092;5.232;2023-09-07T12:36:58;32.00;99.90
17599;DHT22;8918;52.092;5.232;2023-09-07T12:39:24;32.00;99.90
17599;DHT22;8918;52.092;5.232;2023-09-07T12:41:50;31.90;99.90
17599;DHT22;8918;52.092;5.232;2023-09-07T12:44:15;31.90;99.90
17599;DHT22;8918;52.092;5.232;2023-09-07T12:46:43;31.90;99.90
17599;DHT22;8918;52.092;5.232;2023-09-07T12:49:09;31.90;99.90
17599;DHT22;8918;52.092;5.232;2023-09-07T12:51:35;31.90;99.90
17599;DHT22;8918;52.092;5.232;2023-09-07T12:54:01;31.90;99.90
17599;DHT22;8918;52.092;5.232;2023-09-07T12:56:26;31.90;99.90
17599;DHT22;8918;52.092;5.232;2023-09-07T12:58:52;31.90;99.90
17599;DHT22;8918;52.092;5.232;2023-09-07T13:01:18;31.90;99.90
17599;DHT22;8918;52.092;5.232;2023-09-07T13:03:44;31.80;99.90
17599;DHT22;8918;52.092;5.232;2023-09-07T13:06:10;31.80;99.90
17599;DHT22;8918;52.092;5.232;2023-09-07T13:08:36;31.80;99.90
17599;DHT22;8918;52.092;5.232;2023-09-07T13:11:02;31.70;99.90
17599;DHT22;8918;52.092;5.232;2023-09-07T13:13:27;31.70;99.90
17599;DHT22;8918;52.092;5.232;2023-09-07T13:15:58;31.70;99.90
17599;DHT22;8918;52.092;5.232;2023-09-07T13:18:23;31.60;99.90
17599;DHT22;8918;52.092;5.232;2023-09-07T13:20:50;31.60;99.90
17599;DHT22;8918;52.092;5.232;2023-09-07T13:23:17;31.70;99.90
17599;DHT22;8918;52.092;5.232;2023-09-07T13:25:43;31.60;99.90
17599;DHT22;8918;52.092;5.232;2023-09-07T13:28:09;31.50;99.90
17599;DHT22;8918;52.092;5.232;2023-09-07T13:30:34;31.50;99.90
17599;DHT22;8918;52.092;5.232;2023-09-07T13:33:00;31.50;99.90
17599;DHT22;8918;52.092;5.232;2023-09-07T13:35:26;31.50;99.90
17599;DHT22;8918;52.092;5.232;2023-09-07T13:37:52;31.50;99.90
17599;DHT22;8918;52.092;5.232;2023-09-07T13:40:18;31.50;99.90
17599;DHT22;8918;52.092;5.232;2023-09-07T13:42:47;31.50;99.90
17599;DHT22;8918;52.092;5.232;2023-09-07T13:45:13;31.50;99.90
17599;DHT22;8918;52.092;5.232;2023-09-07T13:47:39;31.70;99.90
17599;DHT22;8918;52.092;5.232;2023-09-07T13:50:05;31.70;99.90
17599;DHT22;8918;52.092;5.232;2023-09-07T13:52:31;31.60;99.40
17599;DHT22;8918;52.092;5.232;2023-09-07T13:54:56;31.60;99.90
17599;DHT22;8918;52.092;5.232;2023-09-07T13:57:22;31.60;99.90
17599;DHT22;8918;52.092;5.232;2023-09-07T13:59:47;31.60;99.90
17599;DHT22;8918;52.092;5.232;2023-09-07T14:02:13;31.70;99.90
17599;DHT22;8918;52.092;5.232;2023-09-07T14:04:39;31.60;99.90
17599;DHT22;8918;52.092;5.232;2023-09-07T14:07:04;31.60;99.90
17599;DHT22;8918;52.092;5.232;2023-09-07T14:09:30;31.60;99.90
17599;DHT22;8918;52.092;5.232;2023-09-07T14:11:55;31.60;99.90
17599;DHT22;8918;52.092;5.232;2023-09-07T14:14:21;31.70;99.90
17599;DHT22;8918;52.092;5.232;2023-09-07T14:16:47;31.80;99.90
17599;DHT22;8918;52.092;5.232;2023-09-07T14:19:12;31.70;99.90
17599;DHT22;8918;52.092;5.232;2023-09-07T14:21:38;31.70;99.90
17599;DHT22;8918;52.092;5.232;2023-09-07T14:24:04;31.50;99.90
17599;DHT22;8918;52.092;5.232;2023-09-07T14:26:29;31.50;99.90
17599;DHT22;8918;52.092;5.232;2023-09-07T14:28:55;31.50;99.90
17599;DHT22;8918;52.092;5.232;2023-09-07T14:31:20;31.60;99.90
17599;DHT22;8918;52.092;5.232;2023-09-07T14:33:46;31.50;99.90
17599;DHT22;8918;52.092;5.232;2023-09-07T14:36:12;31.50;99.90
17599;DHT22;8918;52.092;5.232;2023-09-07T14:38:37;31.50;99.90
17599;DHT22;8918;52.092;5.232;2023-09-07T14:41:07;31.40;99.90
17599;DHT22;8918;52.092;5.232;2023-09-07T14:43:36;31.50;99.90
17599;DHT22;8918;52.092;5.232;2023-09-07T14:46:02;31.40;99.90
17599;DHT22;8918;52.092;5.232;2023-09-07T14:48:27;31.50;99.90
17599;DHT22;8918;52.092;5.232;2023-09-07T14:50:53;31.50;99.90
17599;DHT22;8918;52.092;5.232;2023-09-07T14:53:19;31.60;99.90
17599;DHT22;8918;52.092;5.232;2023-09-07T14:55:45;31.50;99.90
17599;DHT22;8918;52.092;5.232;2023-09-07T14:58:10;31.50;99.90
17599;DHT22;8918;52.092;5.232;2023-09-07T15:00:36;31.50;99.90
17599;DHT22;8918;52.092;5.232;2023-09-07T15:03:02;31.40;99.90
17599;DHT22;8918;52.092;5.232;2023-09-07T15:05:27;31.50;99.90
17599;DHT22;8918;52.092;5.232;2023-09-07T15:07:54;31.50;99.90
17599;DHT22;8918;52.092;5.232;2023-09-07T15:10:19;31.50;99.90
17599;DHT22;8918;52.092;5.232;2023-09-07T15:12:45;31.50;99.90
17599;DHT22;8918;52.092;5.232;2023-09-07T15:15:11;31.50;99.90
17599;DHT22;8918;52.092;5.232;2023-09-07T15:17:38;31.60;99.90
17599;DHT22;8918;52.092;5.232;2023-09-07T15:20:05;31.70;99.90
17599;DHT22;8918;52.092;5.232;2023-09-07T15:22:31;31.80;99.90
17599;DHT22;8918;52.092;5.232;2023-09-07T15:24:58;31.80;99.90
17599;DHT22;8918;52.092;5.232;2023-09-07T15:27:25;31.90;99.90
17599;DHT22;8918;52.092;5.232;2023-09-07T15:29:51;31.90;99.90
17599;DHT22;8918;52.092;5.232;2023-09-07T15:32:16;31.50;99.90
17599;DHT22;8918;52.092;5.232;2023-09-07T15:34:42;31.50;99.90
17599;DHT22;8918;52.092;5.232;2023-09-07T15:37:07;31.40;99.90
17599;DHT22;8918;52.092;5.232;2023-09-07T15:39:33;31.40;99.90
17599;DHT22;8918;52.092;5.232;2023-09-07T15:41:58;31.30;99.90